Date,TemperatureHighF,TemperatureAvgF,TemperatureLowF,DewpointHighF,DewpointAvgF,DewpointLowF,HumidityHigh,HumidityAvg,HumidityLow,PressureMaxIn,PressureMinIn,WindSpeedMaxMPH,WindSpeedAvgMPH,GustSpeedMaxMPH,PrecipitationSumIn
2012-1-1,72,57,50,49,42,36,76,59,38,30.24,30.12,18,5,19,0.00
2012-1-2,59,52,45,49,45,39,82,76,69,30.35,30.22,11,1,11,0.00
2012-1-3,65,52,45,53,44,39,82,74,64,30.36,30.26,15,3,16,0.00
2012-1-4,70,58,48,49,44,38,76,60,40,30.39,30.27,17,4,20,0.00
2012-1-5,65,53,45,50,44,38,80,71,54,30.34,30.19,10,2,11,0.00
2012-1-6,58,48,40,47,41,35,84,77,64,30.24,30.13,7,2,8,0.00
2012-1-7,64,52,42,48,38,26,80,60,34,30.23,30.11,9,3,10,0.00
2012-1-8,68,55,47,40,30,24,49,39,29,30.25,30.17,10,4,13,0.00
2012-1-9,69,54,47,39,33,29,59,45,29,30.26,30.16,11,3,12,0.00
2012-1-10,63,50,43,46,36,28,78,60,41,30.20,30.12,6,2,7,0.00
2012-1-11,68,49,40,44,38,33,79,66,33,30.16,30.04,7,2,8,0.00
2012-1-12,69,54,41,45,35,29,72,50,28,30.14,30.03,13,3,14,0.00
2012-1-13,73,59,51,37,32,28,47,37,20,30.23,30.14,15,5,16,0.00
2012-1-14,70,54,46,40,31,22,72,43,21,30.22,30.13,13,3,13,0.00
2012-1-15,56,47,39,44,37,30,78,68,61,30.20,30.10,12,3,13,0.00
2012-1-16,53,42,36,32,28,24,72,59,39,30.37,30.20,6,2,8,0.00
2012-1-17,54,42,32,35,29,22,68,60,38,30.45,30.36,6,2,8,0.00
2012-1-18,55,44,36,39,32,23,76,63,44,30.45,30.31,9,2,10,0.00
2012-1-19,51,44,36,42,36,27,79,71,63,30.30,30.13,6,2,7,0.01
2012-1-20,56,52,48,52,46,40,86,80,72,30.14,29.83,14,3,14,0.00
2012-1-21,56,50,42,52,44,36,86,81,73,30.21,29.81,14,4,16,0.00
2012-1-22,54,48,42,44,41,36,82,77,63,30.22,29.90,13,3,17,0.00
2012-1-23,57,51,45,50,45,40,86,80,76,30.20,29.81,20,6,22,0.00
2012-1-24,59,50,46,51,44,40,82,79,73,30.45,30.19,8,2,10,0.00
2012-1-25,67,55,48,55,47,41,80,75,64,30.45,30.34,10,3,11,0.00
2012-1-26,64,55,50,56,49,44,82,79,73,30.38,30.24,6,2,6,0.00
2012-1-27,63,54,47,53,43,31,84,68,45,30.29,30.21,10,2,10,0.01
2012-1-28,69,56,46,45,36,28,61,48,38,30.33,30.23,13,6,14,0.00
2012-1-29,69,54,48,46,41,38,77,62,37,30.28,30.16,11,4,13,0.00
2012-1-30,59,51,46,48,43,39,81,75,64,30.17,30.06,9,2,12,0.00
2012-1-31,60,51,48,51,45,42,81,78,70,30.25,30.10,9,2,11,0.00
2012-2-1,60,50,44,51,44,38,81,78,71,30.31,30.23,5,2,8,0.00
2012-2-2,63,52,42,49,42,36,81,71,49,30.26,29.98,9,2,9,0.00
2012-2-3,65,51,41,43,37,33,74,60,39,30.08,30.01,10,3,11,0.00
2012-2-4,70,54,43,41,35,29,74,52,24,30.14,30.06,11,3,11,0.00
2012-2-5,72,57,47,40,35,30,59,45,26,30.12,30.01,13,5,14,0.00
2012-2-6,62,55,48,48,39,31,75,56,41,30.03,29.81,8,2,11,0.01
2012-2-7,59,56,52,49,44,37,76,65,44,30.13,29.78,20,6,20,0.03
2012-2-8,69,56,48,52,46,42,80,72,49,30.27,30.13,10,3,11,0.00
2012-2-9,73,58,50,51,46,42,79,65,42,30.29,30.17,12,4,13,0.00
2012-2-10,63,53,46,50,46,39,80,76,58,30.26,30.14,8,2,9,0.02
2012-2-11,59,52,47,52,46,40,82,79,73,30.14,30.04,9,2,9,0.00
2012-2-12,57,50,46,48,44,40,81,78,72,30.13,30.05,6,2,9,0.03
2012-2-13,53,46,42,47,41,37,82,81,78,30.07,29.94,14,2,14,0.00
2012-2-14,57,48,40,50,41,35,83,79,65,30.16,30.03,7,2,9,0.00
2012-2-15,58,48,38,43,36,30,82,67,39,30.17,30.08,11,1,11,0.00
2012-2-16,62,51,44,42,37,29,78,59,38,30.28,30.17,9,2,9,0.00
2012-2-17,60,49,39,48,42,33,82,76,59,30.31,30.22,8,2,8,0.00
2012-2-18,60,51,42,49,44,36,82,77,64,30.27,30.12,8,2,8,0.02
2012-2-19,56,47,39,44,39,34,81,75,58,30.20,30.12,8,2,9,0.00
2012-2-20,61,50,43,49,42,37,81,76,64,30.24,30.13,6,1,6,0.01
2012-2-21,65,51,44,52,44,38,82,77,57,30.32,30.23,8,2,9,0.00
2012-2-22,71,56,46,56,47,41,81,74,52,30.29,30.11,9,3,9,0.00
2012-2-23,66,55,46,54,46,41,82,73,48,30.11,29.96,6,2,8,0.00
2012-2-24,74,58,46,47,37,26,80,50,23,30.25,30.02,11,4,11,0.00
2012-2-25,61,51,41,45,40,36,82,69,48,30.33,30.19,9,2,9,0.00
2012-2-26,60,48,41,43,37,33,78,66,44,30.19,29.91,10,3,10,0.00
2012-2-27,56,45,38,46,36,32,81,73,56,30.03,29.88,12,3,15,0.02
2012-2-28,56,46,36,42,36,31,81,70,50,30.30,30.03,8,2,10,0.00
2012-2-29,55,48,42,49,41,35,82,78,64,30.31,30.17,10,4,14,0.16
2012-3-1,53,46,40,47,40,35,83,81,77,30.35,30.24,9,2,9,0.02
2012-3-2,63,49,38,44,37,30,83,64,40,30.38,30.27,9,3,10,0.00
2012-3-3,72,54,43,46,37,29,77,55,28,30.36,30.26,10,3,11,0.00
2012-3-4,78,59,47,49,43,38,76,58,29,30.27,30.08,11,4,13,0.00
2012-3-5,67,53,46,53,45,40,81,73,53,30.13,30.03,8,3,10,0.00
2012-3-6,60,49,40,42,37,27,81,64,32,30.06,29.98,13,3,13,0.01
2012-3-7,63,49,37,36,28,22,70,48,22,30.23,30.06,6,2,7,0.00
2012-3-8,71,53,40,40,32,23,78,48,22,30.37,30.22,8,2,9,0.00
2012-3-9,77,54,41,45,38,31,80,58,23,30.37,30.17,9,3,9,0.00
2012-3-10,59,50,43,48,43,38,82,76,58,30.18,30.04,8,3,9,0.00
2012-3-11,60,51,45,48,44,40,82,76,62,30.13,30.06,7,2,7,0.00
2012-3-12,60,50,41,49,43,36,83,77,63,30.09,30.01,12,2,12,0.00
2012-3-13,57,53,50,51,46,43,80,78,71,30.08,29.99,10,3,10,0.10
2012-3-14,60,54,52,54,48,46,81,80,78,30.20,30.05,11,2,12,0.12
2012-3-15,63,56,51,55,50,46,83,81,75,30.21,30.12,8,2,11,0.00
2012-3-16,61,54,49,54,49,44,84,82,76,30.14,29.80,12,4,13,0.90
2012-3-17,49,45,41,44,40,36,84,84,83,29.80,29.57,7,1,9,1.15
2012-3-18,54,46,40,44,38,35,84,76,59,30.00,29.73,16,3,16,0.10
2012-3-19,58,47,38,43,37,33,83,70,48,30.14,29.98,8,2,9,0.00
2012-3-20,66,53,46,47,42,38,82,68,46,30.23,30.13,7,2,8,0.00
2012-3-21,73,56,46,56,47,41,82,74,50,30.22,30.03,8,2,9,0.00
2012-3-22,60,52,44,52,46,36,83,78,66,30.08,29.97,9,2,10,0.01
2012-3-23,62,50,40,45,39,34,82,69,40,30.14,29.94,8,3,10,0.00
2012-3-24,60,48,43,48,41,35,82,75,64,29.96,29.84,12,3,15,0.44
2012-3-25,62,50,42,50,43,38,83,77,57,29.94,29.79,8,3,11,0.33
2012-3-26,59,50,41,48,42,36,83,75,57,30.14,29.94,9,3,12,0.00
2012-3-27,62,54,47,49,45,41,82,73,56,30.10,29.97,10,4,12,0.57
2012-3-28,64,55,51,56,49,45,83,81,75,30.18,30.02,9,2,11,0.03
2012-3-29,65,54,48,56,47,43,84,80,66,30.19,30.11,0,0,0,0.02
2012-3-30,67,55,49,56,48,44,83,80,64,30.16,29.98,0,0,0,0.00
2012-3-31,56,51,44,50,46,39,83,81,75,30.10,29.81,0,0,0,0.44
2012-4-1,63,51,42,52,42,37,84,72,45,30.30,30.10,9,2,10,0.02
2012-4-2,66,52,42,51,44,37,83,74,48,30.28,30.08,8,2,10,0.00
2012-4-3,64,54,45,52,46,39,82,74,55,30.13,30.05,9,2,9,0.00
2012-4-4,62,51,41,49,40,33,83,67,45,30.22,30.13,8,2,11,0.01
2012-4-5,62,48,36,44,36,31,82,66,44,30.23,30.13,12,3,16,0.00
2012-4-6,62,49,35,46,38,30,82,68,45,30.31,30.18,7,2,9,0.00
2012-4-7,70,54,44,44,39,34,79,59,30,30.19,30.09,12,4,13,0.00
2012-4-8,69,53,44,49,42,38,82,69,38,30.11,30.05,9,2,10,0.00
2012-4-9,67,54,44,50,43,37,82,69,45,30.05,29.91,8,3,9,0.00
2012-4-10,56,52,48,50,44,37,82,76,63,29.95,29.86,9,1,10,0.41
2012-4-11,59,53,50,52,47,44,83,78,69,30.08,29.86,11,4,12,0.24
2012-4-12,62,54,48,53,45,42,82,73,58,30.10,29.88,14,5,14,0.69
2012-4-13,57,50,45,51,43,39,83,79,72,29.93,29.75,13,4,15,0.77
2012-4-14,65,53,43,51,44,38,82,73,50,30.19,29.93,10,3,12,0.00
2012-4-15,63,52,47,53,46,42,82,79,67,30.27,30.19,8,3,9,0.00
2012-4-16,72,54,43,58,46,38,83,75,55,30.28,30.21,8,2,9,0.00
2012-4-17,79,56,46,59,48,41,82,74,44,30.22,30.13,9,3,9,0.00
2012-4-18,71,56,45,58,48,40,83,74,54,30.20,30.11,8,2,8,0.00
2012-4-19,75,60,49,63,52,44,82,74,59,30.20,30.08,8,2,8,0.00
2012-4-20,76,62,51,63,53,45,80,73,60,30.11,29.98,7,2,7,0.00
2012-4-21,92,65,54,68,54,47,79,68,39,30.01,29.92,7,2,8,0.00
2012-4-22,60,54,50,52,47,44,80,78,74,29.99,29.94,6,2,10,0.01
2012-4-23,66,56,52,57,49,46,81,77,69,30.04,29.96,12,2,12,0.04
2012-4-24,77,61,53,62,51,46,79,71,53,30.09,30.00,9,2,11,0.00
2012-4-25,71,60,54,60,52,48,81,76,65,30.06,29.84,6,2,8,0.16
2012-4-26,62,56,47,53,48,41,82,76,62,30.23,29.84,12,4,16,0.18
2012-4-27,72,56,43,55,46,37,81,70,49,30.26,30.16,8,2,8,0.00
2012-4-28,76,57,47,59,48,41,80,72,52,30.19,29.94,9,3,10,0.00
2012-4-29,69,56,50,58,49,44,81,76,65,29.97,29.92,8,3,9,0.00
2012-4-30,66,55,49,56,48,43,80,77,69,30.02,29.96,9,3,10,0.00
2012-5-1,62,55,48,51,46,41,79,73,63,30.00,29.94,6,2,8,0.00
2012-5-2,62,53,44,50,44,37,79,72,58,30.04,29.96,10,3,11,0.00
2012-5-3,64,55,47,53,46,41,79,74,65,30.14,30.01,7,2,8,0.03
2012-5-4,64,56,49,52,47,41,78,72,57,30.24,30.12,10,2,11,0.03
2012-5-5,75,57,44,57,46,37,78,67,46,30.24,30.08,8,3,8,0.00
2012-5-6,82,59,46,61,47,39,78,66,40,30.11,30.02,8,2,9,0.00
2012-5-7,86,61,49,61,48,42,77,65,33,30.05,29.99,8,2,8,0.00
2012-5-8,76,57,49,62,47,42,78,72,53,30.01,29.97,7,3,8,0.00
2012-5-9,62,53,47,52,45,40,78,75,68,30.01,29.95,9,3,10,0.00
2012-5-10,70,54,48,57,46,41,78,73,60,29.97,29.90,8,3,8,0.00
2012-5-11,70,55,47,58,46,40,78,73,58,30.03,29.92,8,2,9,0.00
2012-5-12,66,54,48,56,46,41,77,75,65,30.11,30.02,9,2,9,0.00
2012-5-13,62,54,50,52,46,43,77,74,66,30.15,30.09,9,3,10,0.00
2012-5-14,71,58,50,56,48,42,76,72,57,30.14,30.08,10,3,10,0.00
2012-5-15,68,56,48,57,47,41,77,73,61,30.10,30.03,8,3,10,0.00
2012-5-16,77,56,48,62,47,41,77,73,56,30.06,30.00,7,3,8,0.00
2012-5-17,64,54,49,53,46,42,77,74,67,30.01,29.92,10,3,12,0.00
2012-5-18,68,54,47,55,45,40,77,73,60,30.03,29.96,10,3,10,2.59
2012-5-19,67,55,45,55,46,38,77,73,63,30.04,29.98,7,3,8,0.00
2012-5-20,80,58,48,63,48,40,76,69,49,30.06,29.96,12,4,12,0.00
2012-5-21,68,57,51,56,47,43,74,71,64,30.14,30.05,9,3,9,0.00
2012-5-22,70,58,51,56,47,42,73,67,58,30.16,30.08,8,3,9,0.00
2012-5-23,70,58,49,53,45,39,71,63,51,30.09,29.95,9,3,14,0.00
2012-5-24,70,58,48,52,44,37,70,62,51,29.97,29.78,9,3,13,0.00
2012-5-25,68,55,47,50,42,36,69,63,51,29.90,29.79,17,4,19,0.00
2012-5-26,60,53,48,48,43,38,71,67,63,30.16,29.90,0,0,0,0.00
2012-5-27,66,56,49,51,44,38,67,65,57,30.19,30.11,0,0,0,0.00
2012-5-28,72,57,45,56,44,36,70,63,52,30.11,30.04,10,2,10,0.00
2012-5-29,70,56,46,53,44,36,69,63,51,30.11,30.06,10,3,11,0.00
2012-5-30,67,55,49,54,44,39,69,66,60,30.15,30.07,8,3,10,0.00
2012-5-31,69,56,46,55,45,37,72,67,60,30.09,29.91,6,2,7,0.00
2012-6-1,63,54,49,51,44,39,72,69,64,29.92,29.86,4,0,5,0.00
2012-6-2,65,55,52,52,44,40,72,64,60,30.01,29.91,0,0,0,0.00
2012-6-3,73,57,50,59,44,38,65,63,59,30.00,29.93,0,0,0,0.00
2012-6-4,61,55,50,49,42,38,64,63,62,30.17,29.94,0,0,0,0.00
2012-6-5,72,57,46,56,44,35,68,62,50,30.22,30.12,0,0,0,0.00
2012-6-6,70,56,45,54,43,34,67,62,52,30.16,30.00,0,0,0,0.00
2012-6-7,70,58,46,55,45,34,67,62,55,30.07,30.00,0,0,0,0.00
2012-6-8,74,60,49,59,45,37,68,59,48,30.03,29.96,0,0,0,0.00
2012-6-9,76,59,46,56,44,34,67,59,45,30.00,29.88,0,0,0,0.00
2012-6-10,86,65,49,61,46,38,68,52,31,29.94,29.88,0,0,0,0.00
2012-6-11,86,63,51,55,46,39,65,54,30,30.02,29.93,0,0,0,0.00
2012-6-12,66,56,51,53,44,38,67,64,62,30.02,29.96,0,0,0,0.00
2012-6-13,65,55,52,54,43,39,68,64,61,30.01,29.85,0,0,0,0.00
2012-6-14,61,54,50,50,42,38,69,65,62,29.90,29.84,0,0,0,0.00
2012-6-15,73,57,49,58,45,38,69,64,52,29.90,29.84,0,0,0,0.00
2012-6-16,83,62,49,62,48,38,69,60,45,29.90,29.84,0,0,0,0.00
2012-6-17,71,59,53,58,47,41,69,65,63,29.96,29.88,0,0,0,0.00
2012-6-18,62,55,52,52,44,39,70,66,63,29.99,29.93,0,0,0,0.00
2012-6-19,66,56,52,54,45,40,70,67,64,29.97,29.88,0,0,0,0.00
2012-6-20,75,58,49,60,46,36,69,65,57,29.91,29.87,0,0,0,0.00
2012-6-21,63,55,51,52,44,39,69,65,62,30.02,29.89,0,0,0,0.00
2012-6-22,65,57,52,53,46,40,71,66,62,30.02,29.91,0,0,0,0.00
2012-6-23,70,60,52,54,47,41,71,63,51,29.98,29.88,0,0,0,0.00
2012-6-24,71,59,49,57,46,38,71,63,52,30.08,29.98,0,0,0,0.00
2012-6-25,75,60,48,59,47,36,70,64,46,30.13,30.07,0,0,0,0.00
2012-6-26,76,62,50,58,49,39,71,63,50,30.09,29.92,0,0,0,0.00
2012-6-27,77,61,50,60,49,40,72,65,50,30.00,29.91,0,0,0,0.00
2012-6-28,76,61,52,60,48,40,71,64,54,30.13,30.00,0,0,0,0.00
2012-6-29,77,61,53,64,49,41,71,65,58,30.15,30.06,0,0,0,0.00
2012-6-30,73,61,56,61,50,44,73,66,64,30.08,29.98,0,0,0,0.00
2012-7-1,73,63,58,62,52,46,76,67,63,30.01,29.92,0,0,0,0.00
2012-7-2,66,59,54,57,49,44,77,70,64,29.98,29.91,0,0,0,0.00
2012-7-3,69,59,53,57,49,42,77,69,63,29.98,29.90,0,0,0,0.00
2012-7-4,63,57,54,54,48,43,77,72,66,29.98,29.88,0,0,0,0.00
2012-7-5,67,58,53,56,49,43,77,71,64,30.05,29.98,0,0,0,0.00
2012-7-6,68,58,51,58,48,41,76,70,65,30.07,30.02,0,0,0,0.00
2012-7-7,69,57,50,60,46,39,76,69,64,30.05,30.00,0,0,0,0.00
2012-7-8,64,56,52,56,45,40,76,67,62,30.08,30.02,0,0,0,0.00
2012-7-9,69,59,52,58,47,40,75,66,60,30.08,30.00,0,0,0,0.00
2012-7-10,67,56,52,58,44,38,74,64,58,30.00,29.90,0,0,0,0.00
2012-7-11,66,56,50,57,44,37,75,64,58,29.94,29.88,0,0,0,0.00
2012-7-12,64,55,51,55,42,37,75,63,57,29.94,29.87,0,0,0,0.00
2012-7-13,63,56,52,54,43,37,75,63,56,30.00,29.90,0,0,0,0.00
2012-7-14,66,57,53,57,45,38,76,63,56,30.03,29.96,0,0,0,0.00
2012-7-15,66,57,51,57,45,37,75,64,56,29.98,29.92,0,0,0,0.00
2012-7-16,68,59,54,57,47,38,75,64,56,29.98,29.91,0,0,0,0.00
2012-7-17,71,61,56,58,48,40,75,63,55,30.04,29.96,0,0,0,0.00
2012-7-18,73,62,56,59,51,41,74,67,57,30.05,30.00,0,0,0,0.00
2012-7-19,76,62,53,62,48,37,74,60,54,30.08,30.00,0,0,0,0.00
2012-7-20,74,61,51,64,48,36,74,62,54,30.11,30.01,0,0,0,0.00
2012-7-21,79,61,53,63,47,38,74,60,54,30.03,29.93,0,0,0,0.00
2012-7-22,62,56,54,53,42,38,74,59,54,30.00,29.93,0,0,0,0.00
2012-7-23,66,58,54,56,46,38,74,63,54,30.03,29.98,0,0,0,0.00
2012-7-24,71,61,55,60,49,41,75,65,58,30.03,29.98,0,0,0,0.00
2012-7-25,70,61,56,58,50,41,74,65,56,30.06,29.99,0,0,0,0.00
2012-7-26,67,60,56,54,45,38,66,58,49,30.05,29.98,0,0,0,0.00
2012-7-27,68,59,54,57,44,36,70,57,48,30.09,30.01,0,0,0,0.00
2012-7-28,64,57,54,55,42,36,74,56,50,30.11,30.05,0,0,0,0.00
2012-7-29,66,58,54,57,42,36,75,56,49,30.10,30.02,0,0,0,0.00
2012-7-30,69,58,54,60,42,35,74,56,48,30.03,29.95,0,0,0,0.00
2012-7-31,66,57,53,58,41,34,75,55,47,30.05,29.97,0,0,0,0.00
2012-8-1,67,57,52,58,40,32,75,55,46,30.11,30.04,0,0,0,0.00
2012-8-2,66,56,51,57,39,31,74,53,44,30.05,29.97,0,0,0,0.00
2012-8-3,63,56,52,55,38,31,74,52,44,29.97,29.91,0,0,0,0.00
2012-8-4,62,57,54,52,37,32,69,48,43,30.01,29.87,0,0,0,0.00
2012-8-5,67,59,54,58,40,31,73,51,39,30.11,30.01,0,0,0,0.00
2012-8-6,83,62,51,68,44,28,72,52,38,30.14,30.05,0,0,0,0.00
2012-8-7,76,62,53,63,46,29,73,56,38,30.09,30.00,0,0,0,0.00
2012-8-8,76,61,52,62,44,28,73,54,38,30.04,29.94,0,0,0,0.00
2012-8-9,72,58,52,61,38,26,72,48,34,29.98,29.89,0,0,0,0.00
2012-8-10,69,57,52,58,35,23,72,45,32,29.90,29.81,0,0,0,0.00
2012-8-11,67,56,51,57,32,19,72,42,25,29.84,29.80,0,0,0,0.00
2012-8-12,78,62,53,64,55,51,95,79,58,29.97,29.92,0,0,0,0.00
2012-8-13,74,58,52,63,53,50,96,84,61,29.97,29.92,0,0,0,0.00
2012-8-14,68,59,53,60,55,51,94,85,69,29.96,29.92,0,0,0,0.00
2012-8-15,67,60,56,59,54,51,91,83,68,30.02,29.92,0,0,0,0.00
2012-8-16,72,60,55,61,55,53,95,84,65,30.06,30.01,0,0,0,0.00
2012-8-17,80,61,54,66,56,52,96,83,56,30.09,30.01,0,0,0,0.00
2012-8-18,74,61,55,62,56,52,93,83,63,30.07,30.00,0,0,0,0.00
2012-8-19,74,60,53,62,55,51,95,83,62,30.08,29.99,0,0,0,0.00
2012-8-20,64,56,52,57,53,50,96,89,74,30.05,29.99,0,0,0,0.00
2012-8-21,67,56,52,59,53,50,96,89,70,30.05,29.99,0,0,0,0.00
2012-8-22,66,57,53,58,54,52,96,90,74,30.07,30.00,0,0,0,0.00
2012-8-23,66,57,54,58,54,52,97,90,74,30.08,29.99,0,0,0,0.01
2012-8-24,63,56,51,56,52,49,96,88,75,30.05,29.98,0,0,0,0.01
2012-8-25,62,56,54,56,53,51,92,87,76,30.02,29.96,0,0,0,0.00
2012-8-26,69,59,53,56,52,48,91,80,59,30.10,29.99,0,0,0,0.00
2012-8-27,81,62,52,62,54,47,92,77,47,30.13,30.05,0,0,0,0.00
2012-8-28,84,64,51,67,55,49,96,73,48,30.11,30.02,0,0,0,0.00
2012-8-29,75,60,52,61,53,48,92,78,57,30.05,29.92,0,0,0,0.00
2012-8-30,60,55,53,55,53,50,97,91,81,29.99,29.90,0,0,0,0.00
2012-8-31,68,58,53,57,53,50,96,86,65,30.09,29.99,0,0,0,0.47
2012-9-1,68,58,52,56,52,49,92,81,60,30.16,30.09,0,0,0,0.00
2012-9-2,73,57,49,60,52,46,94,84,60,30.10,30.03,0,0,0,0.00
2012-9-3,72,56,48,62,52,47,94,86,65,30.10,30.03,0,0,0,0.00
2012-9-4,67,56,52,58,52,50,95,88,70,30.13,30.08,0,0,0,0.00
2012-9-5,65,57,53,59,54,52,95,88,74,30.10,30.06,0,0,0,0.00
2012-9-6,68,59,54,59,54,50,93,84,67,30.12,30.05,0,0,0,0.00
2012-9-7,74,60,52,62,54,50,92,79,60,30.17,30.11,0,0,0,0.00
2012-9-8,72,60,52,61,53,50,93,79,58,30.15,30.06,0,0,0,0.00
2012-9-9,73,62,52,61,53,49,93,75,51,30.10,29.99,0,0,0,0.00
2012-9-10,64,56,52,56,52,48,95,87,74,30.05,29.97,0,0,0,0.00
2012-9-11,65,57,53,58,53,51,96,88,74,30.09,29.97,0,0,0,0.00
2012-9-12,70,59,54,61,54,52,93,87,70,30.18,30.08,0,0,0,0.00
2012-9-13,71,58,54,63,55,52,95,90,71,30.20,30.14,0,0,0,0.01
2012-9-14,69,58,54,62,55,51,95,88,72,30.20,30.13,0,0,0,0.00
2012-9-15,70,58,53,60,54,51,95,87,68,30.19,30.10,0,0,0,0.00
2012-9-16,68,56,51,60,52,50,96,88,73,30.15,30.11,0,0,0,0.00
2012-9-17,64,56,53,54,51,49,92,84,70,30.18,30.12,0,0,0,0.00
2012-9-18,69,58,53,58,52,49,89,82,65,30.20,30.12,0,0,0,0.00
2012-9-19,72,58,49,61,52,47,95,81,60,30.20,30.12,0,0,0,0.00
2012-9-20,70,59,50,60,52,47,93,78,55,30.17,30.07,0,0,0,0.00
2012-9-21,69,58,50,59,52,47,93,80,61,30.10,30.00,0,0,0,0.00
2012-9-22,69,57,50,59,52,48,93,84,64,30.05,30.00,0,0,0,0.00
2012-9-23,66,56,48,57,51,46,94,86,70,30.09,30.00,0,0,0,0.00
2012-9-24,64,55,52,56,52,49,92,87,75,30.09,30.02,0,0,0,0.00
2012-9-25,65,56,51,58,52,50,95,89,74,30.05,29.98,0,0,0,0.00
2012-9-26,62,55,52,57,52,51,96,90,77,30.02,29.97,0,0,0,0.00
2012-9-27,65,55,52,59,52,50,95,89,75,30.04,29.98,0,0,0,0.00
2012-9-28,61,56,52,57,53,51,95,92,85,30.09,30.00,0,0,0,0.01
2012-9-29,69,56,52,62,53,51,96,90,74,30.15,30.06,0,0,0,0.01
2012-9-30,86,63,49,68,55,48,96,78,46,30.15,30.05,0,0,0,0.00
2012-10-1,98,74,58,58,51,42,82,48,19,30.08,29.97,0,0,0,0.00
2012-10-2,99,75,59,55,46,38,83,40,15,29.98,29.90,0,0,0,0.00
2012-10-3,72,62,56,62,55,50,85,80,65,30.13,29.94,0,0,0,0.00
2012-10-4,69,60,54,57,54,50,91,81,64,30.26,30.13,0,0,0,0.00
2012-10-5,72,61,54,60,55,52,93,83,60,30.26,30.16,0,0,0,0.00
2012-10-6,74,63,54,60,54,50,92,75,54,30.17,30.05,0,0,0,0.00
2012-10-7,71,60,52,56,52,46,84,75,55,30.12,30.05,0,0,0,0.00
2012-10-8,71,60,51,57,53,47,91,79,56,30.15,30.10,0,0,0,0.00
2012-10-9,75,60,52,59,54,49,93,80,49,30.15,30.05,0,0,0,0.00
2012-10-10,69,59,55,60,55,52,92,87,67,30.07,30.02,0,0,0,0.01
2012-10-11,58,56,54,54,52,51,93,89,82,30.08,30.00,0,0,0,0.06
2012-10-12,65,58,54,58,54,52,95,89,73,30.32,30.07,0,0,0,0.01
2012-10-13,73,60,50,59,53,47,94,80,56,30.39,30.26,0,0,0,0.00
2012-10-14,73,62,53,61,56,50,92,82,63,30.29,30.15,0,0,0,0.00
2012-10-15,73,61,52,63,56,50,95,84,63,30.18,30.05,0,0,0,0.00
2012-10-16,75,63,56,64,58,53,93,83,66,30.10,29.96,0,0,0,0.00
2012-10-17,86,68,56,59,51,34,93,60,17,29.99,29.90,0,0,0,0.00
2012-10-18,86,72,65,62,48,34,86,47,23,30.15,29.95,0,0,0,0.00
2012-10-19,73,64,57,64,59,55,93,85,72,30.17,30.04,0,0,0,0.01
2012-10-20,63,57,50,58,55,47,95,91,81,30.05,29.93,0,0,0,0.02
2012-10-21,64,54,46,52,48,44,94,81,59,30.07,29.96,0,0,0,0.00
2012-10-22,63,55,52,56,51,48,95,86,67,30.08,29.90,0,0,0,0.14
2012-10-23,64,54,49,51,47,44,90,78,55,30.16,30.06,0,0,0,0.02
2012-10-24,66,54,47,56,50,44,90,84,68,30.30,30.15,0,0,0,0.03
2012-10-25,72,60,54,58,51,44,88,73,58,30.32,30.25,0,0,0,0.00
2012-10-26,74,60,50,52,46,41,80,64,37,30.31,30.17,0,0,0,0.00
2012-10-27,80,64,54,58,51,42,85,64,43,30.17,30.04,0,0,0,0.00
2012-10-28,74,60,54,60,54,49,93,80,57,30.13,30.05,0,0,0,0.00
2012-10-29,70,57,49,61,53,47,95,88,69,30.21,30.13,0,0,0,0.00
2012-10-30,71,55,50,61,53,48,96,91,69,30.20,30.10,0,0,0,0.03
2012-10-31,61,56,54,58,54,52,97,93,84,30.16,30.09,0,0,0,0.02
2012-11-1,64,58,55,62,56,53,96,94,90,30.14,30.09,0,0,0,0.11
2012-11-2,67,56,48,59,53,47,96,88,71,30.18,30.12,0,0,0,0.01
2012-11-3,79,61,50,56,51,47,92,72,38,30.23,30.15,0,0,0,0.00
2012-11-4,85,68,55,58,52,45,72,58,37,30.29,30.20,0,0,0,0.00
2012-11-5,92,72,63,54,50,45,63,48,24,30.23,30.11,0,0,0,0.00
2012-11-6,84,67,53,54,48,41,94,54,26,30.16,30.10,0,0,0,0.00
2012-11-7,59,54,52,54,52,51,96,92,84,30.17,30.07,0,0,0,0.00
2012-11-8,62,53,44,52,46,41,93,79,50,30.11,30.00,0,0,0,0.07
2012-11-9,58,48,43,48,42,38,94,80,61,30.11,30.00,0,0,0,0.04
2012-11-10,61,48,40,48,41,37,91,76,58,30.36,30.10,0,0,0,0.00
2012-11-11,64,51,41,45,38,33,84,63,32,30.47,30.35,0,0,0,0.00
2012-11-12,68,53,44,46,36,30,64,54,28,30.46,30.32,0,0,0,0.00
2012-11-13,77,60,49,43,36,32,59,42,23,30.33,30.14,0,0,0,0.00
2012-11-14,78,62,54,44,39,32,55,44,26,30.18,30.09,0,0,0,0.00
2012-11-15,72,59,53,53,44,35,81,60,30,30.12,30.05,0,0,0,0.00
2012-11-16,64,59,55,57,52,46,92,80,65,30.11,29.97,0,0,0,0.18
2012-11-17,62,58,54,60,55,50,96,90,78,30.13,29.95,0,0,0,0.32
2012-11-18,63,55,50,56,51,47,97,87,71,30.28,30.11,0,0,0,0.30
2012-11-19,66,54,45,52,47,42,93,79,54,30.35,30.27,0,0,0,0.00
2012-11-20,68,57,49,57,51,45,93,82,63,30.30,30.18,0,0,0,0.00
2012-11-21,64,56,50,60,54,46,97,91,81,30.29,30.17,0,0,0,0.14
2012-11-22,69,56,48,54,47,44,90,74,51,30.33,30.25,0,0,0,0.01
2012-11-23,75,61,51,50,45,42,74,58,40,30.32,30.21,0,0,0,0.00
2012-11-24,75,60,54,54,48,44,82,66,42,30.25,30.10,0,0,0,0.00
2012-11-25,65,54,47,55,49,43,93,82,68,30.12,30.01,0,0,0,0.00
2012-11-26,62,53,43,54,48,40,93,83,68,30.19,30.05,0,0,0,0.00
2012-11-27,64,55,49,55,49,47,92,82,71,30.23,30.11,0,0,0,0.00
2012-11-28,63,57,53,58,52,47,93,85,75,30.18,29.96,0,0,0,0.26
2012-11-29,63,59,54,57,54,51,93,85,79,30.18,30.02,0,0,0,0.00
2012-11-30,62,58,55,58,56,54,97,93,82,30.17,29.97,0,0,0,1.74
2012-12-1,65,59,56,60,56,54,97,91,82,30.18,30.06,0,0,0,0.19
2012-12-2,61,57,50,60,56,49,97,95,89,30.20,29.98,0,0,0,0.77
2012-12-3,62,54,48,55,50,46,94,88,76,30.30,30.19,0,0,0,0.00
2012-12-4,60,55,50,55,52,49,95,90,81,30.36,30.28,0,0,0,0.00
2012-12-5,61,57,54,60,56,52,97,94,90,30.30,30.16,0,0,0,0.49
2012-12-6,60,56,49,57,54,46,97,91,80,30.22,30.15,0,0,0,0.00
2012-12-7,64,53,46,56,49,45,94,86,74,30.23,30.15,0,0,0,0.00
2012-12-8,63,51,42,52,44,40,94,79,58,30.17,30.09,0,0,0,0.00
2012-12-9,67,56,46,47,42,39,76,62,43,30.26,30.16,0,0,0,0.00
2012-12-10,70,58,51,51,45,41,75,63,45,30.31,30.20,0,0,0,0.00
2012-12-11,65,54,46,52,46,39,85,75,57,30.19,29.99,0,0,0,0.00
2012-12-12,58,50,42,49,44,37,95,81,63,30.01,29.94,0,0,0,0.08
2012-12-13,58,46,39,46,40,36,90,80,59,30.00,29.92,0,0,0,0.01
2012-12-14,54,45,38,44,39,34,87,78,66,30.12,29.93,0,0,0,0.00
2012-12-15,48,44,38,43,40,35,92,85,78,30.20,30.08,0,0,0,0.09
2012-12-16,58,51,45,51,46,41,92,82,72,30.21,30.11,0,0,0,0.00
2012-12-17,57,52,46,55,51,45,97,94,90,30.19,30.08,0,0,0,0.20
2012-12-18,55,44,37,46,39,32,95,82,56,30.27,30.08,0,0,0,0.01
2012-12-19,55,44,35,40,31,24,84,63,41,30.41,30.26,0,0,0,0.00
2012-12-20,59,46,37,34,30,26,65,54,30,30.34,30.15,0,0,0,0.00
2012-12-21,56,50,43,48,38,28,88,65,50,30.15,30.02,0,0,0,0.01
2012-12-22,56,51,48,52,48,45,95,89,80,30.22,30.00,0,0,0,1.11
2012-12-23,56,51,47,55,50,45,98,94,87,30.22,30.01,0,0,0,0.92
2012-12-24,58,49,44,52,46,41,96,89,74,30.30,30.11,0,0,0,0.00
2012-12-25,51,47,43,46,42,37,95,84,77,30.25,29.94,0,0,0,0.53
2012-12-26,55,47,42,52,45,40,96,92,86,30.20,29.99,0,0,0,0.13
2012-12-27,58,47,41,49,42,38,95,83,62,30.27,30.18,0,0,0,0.00
2012-12-28,50,45,40,42,39,36,88,81,73,30.28,30.11,0,0,0,0.02
2012-12-29,51,45,41,46,42,37,93,87,79,30.18,30.06,0,0,0,0.18
2012-12-30,55,45,38,47,40,36,92,83,66,30.27,30.13,0,0,0,0.00
2012-12-31,55,45,36,41,37,32,87,74,49,30.38,30.26,0,0,0,0.00
2013-1-1,56,46,38,42,36,32,79,69,50,30.34,30.26,0,0,0,0.00